createdAt,value
2018-03-02T00:00:04.590Z,1008.64
2018-03-02T00:01:04.567Z,1008.63
2018-03-02T00:02:04.535Z,1008.56
2018-03-02T00:03:04.514Z,1008.56
2018-03-02T00:04:04.484Z,1008.61
2018-03-02T00:05:04.462Z,1008.56
2018-03-02T00:06:04.432Z,1008.53
2018-03-02T00:07:04.411Z,1008.54
2018-03-02T00:08:04.379Z,1008.56
2018-03-02T00:09:04.354Z,1008.55
2018-03-02T00:10:04.375Z,1008.55
2018-03-02T00:11:04.305Z,1008.52
2018-03-02T00:12:04.272Z,1008.50
2018-03-02T00:13:04.249Z,1008.54
2018-03-02T00:14:04.223Z,1008.46
2018-03-02T00:15:04.196Z,1008.50
2018-03-02T00:16:04.169Z,1008.53
2018-03-02T00:17:04.145Z,1008.53
2018-03-02T00:18:04.122Z,1008.50
2018-03-02T00:19:04.096Z,1008.50
2018-03-02T00:20:04.066Z,1008.54
2018-03-02T00:21:04.042Z,1008.46
2018-03-02T00:22:04.015Z,1008.49
2018-03-02T00:23:03.991Z,1008.46
2018-03-02T00:24:03.964Z,1008.48
2018-03-02T00:25:03.948Z,1008.44
2018-03-02T00:26:03.915Z,1008.49
2018-03-02T00:27:03.888Z,1008.49
2018-03-02T00:28:03.859Z,1008.44
2018-03-02T00:29:03.835Z,1008.40
2018-03-02T00:30:03.808Z,1008.40
2018-03-02T00:31:03.796Z,1008.36
2018-03-02T00:32:03.756Z,1008.36
2018-03-02T00:33:03.828Z,1008.35
2018-03-02T00:34:03.702Z,1008.38
2018-03-02T00:35:03.687Z,1008.33
2018-03-02T00:36:03.650Z,1008.34
2018-03-02T00:37:03.701Z,1008.33
2018-03-02T00:38:03.600Z,1008.34
2018-03-02T00:39:03.584Z,1008.31
2018-03-02T00:40:03.553Z,1008.30
2018-03-02T00:41:03.521Z,1008.32
2018-03-02T00:42:03.495Z,1008.25
2018-03-02T00:43:03.470Z,1008.27
2018-03-02T00:44:03.443Z,1008.27
2018-03-02T00:45:03.435Z,1008.19
2018-03-02T00:46:03.396Z,1008.20
2018-03-02T00:47:03.426Z,1008.11
2018-03-02T00:48:03.337Z,1008.13
2018-03-02T00:49:03.330Z,1008.13
2018-03-02T00:50:03.290Z,1008.09
2018-03-02T00:51:03.264Z,1008.07
2018-03-02T00:52:03.233Z,1008.00
2018-03-02T00:53:03.211Z,1008.05
2018-03-02T00:54:03.183Z,1007.98
2018-03-02T00:55:03.163Z,1008.00
2018-03-02T00:56:03.130Z,1008.02
2018-03-02T00:57:03.103Z,1008.00
2018-03-02T00:58:03.076Z,1008.02
2018-03-02T00:59:03.050Z,1008.00
2018-03-02T01:00:03.027Z,1008.01
2018-03-02T01:01:02.998Z,1007.96
2018-03-02T01:02:02.971Z,1007.92
2018-03-02T01:03:02.947Z,1007.93
2018-03-02T01:04:02.918Z,1007.92
2018-03-02T01:05:02.895Z,1007.92
2018-03-02T01:06:02.871Z,1007.89
2018-03-02T01:07:02.837Z,1007.90
2018-03-02T01:08:02.823Z,1007.86
2018-03-02T01:09:02.787Z,1007.89
2018-03-02T01:10:02.763Z,1007.86
2018-03-02T01:11:02.739Z,1007.86
2018-03-02T01:12:02.714Z,1007.83
2018-03-02T01:13:02.684Z,1007.82
2018-03-02T01:14:02.660Z,1007.77
2018-03-02T01:15:02.630Z,1007.70
2018-03-02T01:16:02.608Z,1007.74
2018-03-02T01:17:02.582Z,1007.72
2018-03-02T01:18:02.553Z,1007.70
2018-03-02T01:19:02.525Z,1007.71
2018-03-02T01:20:02.500Z,1007.68
2018-03-02T01:21:02.484Z,1007.62
2018-03-02T01:22:02.448Z,1007.63
2018-03-02T01:23:02.424Z,1007.59
2018-03-02T01:24:02.400Z,1007.55
2018-03-02T01:25:02.375Z,1007.56
2018-03-02T01:26:02.345Z,1007.52
2018-03-02T01:27:02.320Z,1007.51
2018-03-02T01:28:02.344Z,1007.48
2018-03-02T01:29:02.265Z,1007.49
2018-03-02T01:30:02.250Z,1007.49
2018-03-02T01:31:02.214Z,1007.46
2018-03-02T01:32:02.184Z,1007.47
2018-03-02T01:33:02.163Z,1007.41
2018-03-02T01:34:02.135Z,1007.41
2018-03-02T01:35:02.106Z,1007.34
2018-03-02T01:36:02.084Z,1007.35
2018-03-02T01:37:02.055Z,1007.31
2018-03-02T01:38:02.050Z,1007.30
2018-03-02T01:39:02.004Z,1007.29
2018-03-02T01:40:02.054Z,1007.31
2018-03-02T01:41:01.956Z,1007.32
2018-03-02T01:42:01.929Z,1007.29
2018-03-02T01:43:01.900Z,1007.34
2018-03-02T01:44:01.878Z,1007.27
2018-03-02T01:45:01.843Z,1007.32
2018-03-02T01:46:01.857Z,1007.30
2018-03-02T01:47:01.791Z,1007.34
2018-03-02T01:48:01.818Z,1007.30
2018-03-02T01:49:01.744Z,1007.25
2018-03-02T01:50:01.750Z,1007.24
2018-03-02T01:51:01.686Z,1007.23
2018-03-02T01:52:01.658Z,1007.26
2018-03-02T01:53:01.639Z,1007.20
2018-03-02T01:54:01.614Z,1007.21
2018-03-02T01:55:01.584Z,1007.16
2018-03-02T01:56:01.559Z,1007.14
2018-03-02T01:57:01.526Z,1007.10
2018-03-02T01:58:01.503Z,1007.11
2018-03-02T01:59:01.476Z,1007.11
2018-03-02T02:00:01.451Z,1007.09
2018-03-02T02:01:01.422Z,1007.06
2018-03-02T02:02:01.397Z,1007.04
2018-03-02T02:03:01.373Z,1007.04
2018-03-02T02:04:01.344Z,1007.02
2018-03-02T02:05:01.320Z,1007.02
2018-03-02T02:06:01.294Z,1007.04
2018-03-02T02:07:01.265Z,1007.00
2018-03-02T02:08:01.241Z,1006.98
2018-03-02T02:09:01.215Z,1006.99
2018-03-02T02:10:01.191Z,1006.93
2018-03-02T02:11:01.160Z,1006.96
2018-03-02T02:12:01.134Z,1006.94
2018-03-02T02:13:01.116Z,1006.89
2018-03-02T02:14:01.082Z,1006.85
2018-03-02T02:15:01.059Z,1006.79
2018-03-02T02:16:01.034Z,1006.83
2018-03-02T02:17:01.003Z,1006.79
2018-03-02T02:18:00.978Z,1006.74
2018-03-02T02:19:00.954Z,1006.73
2018-03-02T02:20:00.923Z,1006.75
2018-03-02T02:21:00.898Z,1006.72
2018-03-02T02:22:00.871Z,1006.68
2018-03-02T02:23:00.844Z,1006.62
2018-03-02T02:24:00.820Z,1006.65
2018-03-02T02:25:00.794Z,1006.62
2018-03-02T02:26:00.764Z,1006.66
2018-03-02T02:27:00.734Z,1006.61
2018-03-02T02:28:00.713Z,1006.62
2018-03-02T02:29:00.684Z,1006.60
2018-03-02T02:30:00.659Z,1006.60
2018-03-02T02:31:00.632Z,1006.60
2018-03-02T02:32:00.608Z,1006.59
2018-03-02T02:33:00.582Z,1006.59
2018-03-02T02:34:00.559Z,1006.59
2018-03-02T02:35:00.526Z,1006.57
2018-03-02T02:36:00.502Z,1006.58
2018-03-02T02:37:00.474Z,1006.57
2018-03-02T02:38:00.450Z,1006.55
2018-03-02T02:39:00.424Z,1006.54
2018-03-02T02:40:00.393Z,1006.54
2018-03-02T02:41:00.366Z,1006.58
2018-03-02T02:42:00.343Z,1006.55
2018-03-02T02:43:00.317Z,1006.55
2018-03-02T02:44:00.289Z,1006.53
2018-03-02T02:45:00.263Z,1006.54
2018-03-02T02:46:00.239Z,1006.50
2018-03-02T02:47:00.269Z,1006.49
2018-03-02T02:48:00.184Z,1006.47
2018-03-02T02:49:00.159Z,1006.46
2018-03-02T02:50:00.132Z,1006.46
2018-03-02T02:51:00.168Z,1006.45
2018-03-02T02:52:00.082Z,1006.41
2018-03-02T02:53:00.058Z,1006.49
2018-03-02T02:54:00.027Z,1006.45
2018-03-02T02:55:00.011Z,1006.48
2018-03-02T02:55:59.980Z,1006.47
2018-03-02T02:56:59.948Z,1006.45
2018-03-02T02:57:59.937Z,1006.48
2018-03-02T02:58:59.892Z,1006.43
2018-03-02T02:59:59.868Z,1006.40
2018-03-02T03:00:59.857Z,1006.36
2018-03-02T03:01:59.814Z,1006.37
2018-03-02T03:02:59.789Z,1006.35
2018-03-02T03:03:59.762Z,1006.41
2018-03-02T03:04:59.734Z,1006.38
2018-03-02T03:05:59.710Z,1006.37
2018-03-02T03:06:59.684Z,1006.36
2018-03-02T03:07:59.660Z,1006.37
2018-03-02T03:08:59.630Z,1006.34
2018-03-02T03:09:59.602Z,1006.36
2018-03-02T03:10:59.583Z,1006.38
2018-03-02T03:11:59.553Z,1006.38
2018-03-02T03:12:59.524Z,1006.34
2018-03-02T03:13:59.497Z,1006.33
2018-03-02T03:14:59.471Z,1006.35
2018-03-02T03:15:59.440Z,1006.37
2018-03-02T03:16:59.415Z,1006.37
2018-03-02T03:17:59.390Z,1006.34
2018-03-02T03:18:59.362Z,1006.34
2018-03-02T03:19:59.340Z,1006.32
2018-03-02T03:20:59.307Z,1006.31
2018-03-02T03:21:59.284Z,1006.27
2018-03-02T03:22:59.258Z,1006.28
2018-03-02T03:23:59.230Z,1006.27
2018-03-02T03:24:59.203Z,1006.26
2018-03-02T03:25:59.180Z,1006.26
2018-03-02T03:26:59.148Z,1006.27
2018-03-02T03:27:59.124Z,1006.21
2018-03-02T03:28:59.098Z,1006.21
2018-03-02T03:29:59.072Z,1006.23
2018-03-02T03:30:59.043Z,1006.20
2018-03-02T03:31:59.018Z,1006.21
2018-03-02T03:32:58.991Z,1006.21
2018-03-02T03:33:58.963Z,1006.21
2018-03-02T03:34:58.937Z,1006.20
2018-03-02T03:35:58.911Z,1006.23
2018-03-02T03:36:58.893Z,1006.23
2018-03-02T03:37:58.858Z,1006.21
2018-03-02T03:38:58.829Z,1006.22
2018-03-02T03:39:58.812Z,1006.17
2018-03-02T03:40:58.779Z,1006.19
2018-03-02T03:41:58.752Z,1006.15
2018-03-02T03:42:58.725Z,1006.19
2018-03-02T03:43:58.699Z,1006.16
2018-03-02T03:44:58.675Z,1006.11
2018-03-02T03:45:58.654Z,1006.06
2018-03-02T03:46:58.617Z,1006.05
2018-03-02T03:47:58.592Z,1006.06
2018-03-02T03:48:58.574Z,1006.04
2018-03-02T03:49:58.541Z,1006.02
2018-03-02T03:50:58.513Z,1006.05
2018-03-02T03:51:58.488Z,1006.01
2018-03-02T03:52:58.460Z,1006.00
2018-03-02T03:53:58.433Z,1005.99
2018-03-02T03:54:58.414Z,1005.94
2018-03-02T03:55:58.385Z,1005.94
2018-03-02T03:56:58.354Z,1005.93
2018-03-02T03:57:58.328Z,1005.89
2018-03-02T03:58:58.299Z,1005.91
2018-03-02T03:59:58.272Z,1005.84
2018-03-02T04:00:58.247Z,1005.83
2018-03-02T04:01:58.228Z,1005.84
2018-03-02T04:02:58.191Z,1005.84
2018-03-02T04:03:58.174Z,1005.84
2018-03-02T04:04:58.145Z,1005.84
2018-03-02T04:05:58.114Z,1005.85
2018-03-02T04:06:58.087Z,1005.82
2018-03-02T04:07:58.058Z,1005.80
2018-03-02T04:08:58.034Z,1005.82
2018-03-02T04:09:58.009Z,1005.82
2018-03-02T04:10:57.978Z,1005.83
2018-03-02T04:11:57.957Z,1005.80
2018-03-02T04:12:57.933Z,1005.79
2018-03-02T04:13:57.901Z,1005.76
2018-03-02T04:14:57.877Z,1005.81
2018-03-02T04:15:57.849Z,1005.82
2018-03-02T04:16:57.819Z,1005.82
2018-03-02T04:17:57.793Z,1005.81
2018-03-02T04:18:57.766Z,1005.75
2018-03-02T04:19:57.743Z,1005.80
2018-03-02T04:20:57.717Z,1005.76
2018-03-02T04:21:57.695Z,1005.77
2018-03-02T04:22:57.692Z,1005.69
2018-03-02T04:23:57.638Z,1005.69
2018-03-02T04:24:57.612Z,1005.72
2018-03-02T04:25:57.587Z,1005.71
2018-03-02T04:26:57.558Z,1005.69
2018-03-02T04:27:57.532Z,1005.67
2018-03-02T04:28:57.505Z,1005.67
2018-03-02T04:29:57.476Z,1005.65
2018-03-02T04:30:57.449Z,1005.73
2018-03-02T04:31:57.424Z,1005.70
2018-03-02T04:32:57.398Z,1005.72
2018-03-02T04:33:57.369Z,1005.73
2018-03-02T04:34:57.345Z,1005.70
2018-03-02T04:35:57.319Z,1005.75
2018-03-02T04:36:57.288Z,1005.69
2018-03-02T04:37:57.265Z,1005.74
2018-03-02T04:38:57.239Z,1005.74
2018-03-02T04:39:57.207Z,1005.76
2018-03-02T04:40:57.180Z,1005.73
2018-03-02T04:41:57.155Z,1005.67
2018-03-02T04:42:57.127Z,1005.67
2018-03-02T04:43:57.100Z,1005.59
2018-03-02T04:44:57.074Z,1005.58
2018-03-02T04:45:57.050Z,1005.57
2018-03-02T04:46:57.024Z,1005.55
2018-03-02T04:47:56.994Z,1005.56
2018-03-02T04:48:56.978Z,1005.48
2018-03-02T04:49:56.941Z,1005.53
2018-03-02T04:50:56.918Z,1005.49
2018-03-02T04:51:56.896Z,1005.52
2018-03-02T04:52:56.861Z,1005.48
2018-03-02T04:53:56.842Z,1005.49
2018-03-02T04:54:56.816Z,1005.41
2018-03-02T04:55:56.784Z,1005.38
2018-03-02T04:56:56.758Z,1005.41
2018-03-02T04:57:56.733Z,1005.41
2018-03-02T04:58:56.700Z,1005.47
2018-03-02T04:59:56.672Z,1005.44
2018-03-02T05:00:56.650Z,1005.46
2018-03-02T05:01:56.620Z,1005.40
2018-03-02T05:02:56.594Z,1005.49
2018-03-02T05:03:56.575Z,1005.44
2018-03-02T05:04:56.542Z,1005.45
2018-03-02T05:05:56.517Z,1005.47
2018-03-02T05:06:56.489Z,1005.40
2018-03-02T05:07:56.463Z,1005.43
2018-03-02T05:08:56.440Z,1005.46
2018-03-02T05:09:56.411Z,1005.43
2018-03-02T05:10:56.383Z,1005.44
2018-03-02T05:11:56.355Z,1005.40
2018-03-02T05:12:56.327Z,1005.38
2018-03-02T05:13:56.304Z,1005.40
2018-03-02T05:14:56.283Z,1005.39
2018-03-02T05:15:56.261Z,1005.41
2018-03-02T05:16:56.224Z,1005.42
2018-03-02T05:17:56.201Z,1005.40
2018-03-02T05:18:56.170Z,1005.41
2018-03-02T05:19:56.144Z,1005.35
2018-03-02T05:20:56.115Z,1005.29
2018-03-02T05:21:56.090Z,1005.33
2018-03-02T05:22:56.074Z,1005.30
2018-03-02T05:23:56.038Z,1005.31
2018-03-02T05:24:56.009Z,1005.30
2018-03-02T05:25:55.987Z,1005.38
2018-03-02T05:26:55.962Z,1005.34
2018-03-02T05:27:55.939Z,1005.33
2018-03-02T05:28:55.905Z,1005.35
2018-03-02T05:29:55.877Z,1005.31
2018-03-02T05:30:55.851Z,1005.31
2018-03-02T05:31:55.824Z,1005.28
2018-03-02T05:32:55.795Z,1005.34
2018-03-02T05:33:55.829Z,1005.30
2018-03-02T05:34:55.741Z,1005.33
2018-03-02T05:35:55.724Z,1005.31
2018-03-02T05:36:55.695Z,1005.28
2018-03-02T05:37:55.666Z,1005.31
2018-03-02T05:38:55.638Z,1005.29
2018-03-02T05:39:55.629Z,1005.31
2018-03-02T05:40:55.584Z,1005.30
2018-03-02T05:41:55.562Z,1005.29
2018-03-02T05:42:55.537Z,1005.33
2018-03-02T05:43:55.507Z,1005.31
2018-03-02T05:44:55.478Z,1005.29
2018-03-02T05:45:55.563Z,1005.26
2018-03-02T05:46:55.425Z,1005.24
2018-03-02T05:47:55.399Z,1005.21
2018-03-02T05:48:55.372Z,1005.20
2018-03-02T05:49:55.344Z,1005.26
2018-03-02T05:50:55.320Z,1005.23
2018-03-02T05:51:55.294Z,1005.24
2018-03-02T05:52:55.264Z,1005.19
2018-03-02T05:53:55.236Z,1005.22
2018-03-02T05:54:55.211Z,1005.24
2018-03-02T05:55:55.182Z,1005.18
2018-03-02T05:56:55.161Z,1005.23
2018-03-02T05:57:55.132Z,1005.22
2018-03-02T05:58:55.104Z,1005.22
2018-03-02T05:59:55.080Z,1005.20
2018-03-02T06:00:55.053Z,1005.22
2018-03-02T06:01:55.024Z,1005.18
2018-03-02T06:02:54.997Z,1005.21
2018-03-02T06:03:54.971Z,1005.20
2018-03-02T06:04:54.946Z,1005.20
2018-03-02T06:05:54.924Z,1005.23
2018-03-02T06:06:54.891Z,1005.19
2018-03-02T06:07:54.873Z,1005.20
2018-03-02T06:08:54.839Z,1005.20
2018-03-02T06:09:54.810Z,1005.26
2018-03-02T06:10:54.784Z,1005.25
2018-03-02T06:11:54.756Z,1005.21
2018-03-02T06:12:54.732Z,1005.22
2018-03-02T06:13:54.704Z,1005.24
2018-03-02T06:14:54.676Z,1005.27
2018-03-02T06:15:54.652Z,1005.22
2018-03-02T06:16:54.624Z,1005.23
2018-03-02T06:17:54.597Z,1005.27
2018-03-02T06:18:54.568Z,1005.17
2018-03-02T06:19:54.545Z,1005.23
2018-03-02T06:20:54.517Z,1005.26
2018-03-02T06:21:54.496Z,1005.26
2018-03-02T06:22:54.464Z,1005.30
2018-03-02T06:23:54.442Z,1005.33
2018-03-02T06:24:54.415Z,1005.32
2018-03-02T06:25:54.391Z,1005.27
2018-03-02T06:26:54.356Z,1005.26
2018-03-02T06:27:54.334Z,1005.31
2018-03-02T06:28:54.316Z,1005.29
2018-03-02T06:29:54.283Z,1005.28
2018-03-02T06:30:54.304Z,1005.25
2018-03-02T06:31:54.232Z,1005.32
2018-03-02T06:32:54.217Z,1005.25
2018-03-02T06:33:54.174Z,1005.28
2018-03-02T06:34:54.249Z,1005.26
2018-03-02T06:35:54.116Z,1005.26
2018-03-02T06:36:54.177Z,1005.21
2018-03-02T06:37:54.073Z,1005.19
2018-03-02T06:38:54.155Z,1005.17
2018-03-02T06:39:54.014Z,1005.18
2018-03-02T06:40:54.160Z,1005.21
2018-03-02T06:41:53.959Z,1005.20
2018-03-02T06:42:53.948Z,1005.18
2018-03-02T06:43:53.906Z,1005.20
2018-03-02T06:44:53.884Z,1005.21
2018-03-02T06:45:53.858Z,1005.19
2018-03-02T06:46:53.827Z,1005.16
2018-03-02T06:47:53.802Z,1005.17
2018-03-02T06:48:53.780Z,1005.18
2018-03-02T06:49:53.754Z,1005.16
2018-03-02T06:50:53.725Z,1005.16
2018-03-02T06:51:53.698Z,1005.09
2018-03-02T06:52:53.670Z,1005.06
2018-03-02T06:53:53.648Z,1005.07
2018-03-02T06:54:53.622Z,1005.05
2018-03-02T06:55:53.590Z,1005.03
2018-03-02T06:56:53.565Z,1005.05
2018-03-02T06:57:53.548Z,1005.02
2018-03-02T06:58:53.509Z,1005.06
2018-03-02T06:59:53.487Z,1005.10
2018-03-02T07:00:53.462Z,1005.08
2018-03-02T07:01:53.432Z,1005.14
2018-03-02T07:02:53.408Z,1005.08
2018-03-02T07:03:53.382Z,1005.10
2018-03-02T07:04:53.358Z,1005.07
2018-03-02T07:05:53.326Z,1005.05
2018-03-02T07:06:53.309Z,1005.03
2018-03-02T07:07:53.275Z,1005.00
2018-03-02T07:08:53.248Z,1004.94
2018-03-02T07:09:53.226Z,1004.94
2018-03-02T07:10:53.203Z,1004.93
2018-03-02T07:11:53.170Z,1004.91
2018-03-02T07:12:53.145Z,1004.92
2018-03-02T07:13:53.125Z,1004.93
2018-03-02T07:14:53.094Z,1004.89
2018-03-02T07:15:53.065Z,1004.89
2018-03-02T07:16:53.040Z,1004.90
2018-03-02T07:17:53.016Z,1004.89
2018-03-02T07:18:52.992Z,1004.88
2018-03-02T07:19:52.970Z,1004.87
2018-03-02T07:20:52.938Z,1004.86
2018-03-02T07:21:52.915Z,1004.86
2018-03-02T07:22:52.899Z,1004.83
2018-03-02T07:23:52.866Z,1004.85
2018-03-02T07:24:52.835Z,1004.87
2018-03-02T07:25:52.808Z,1004.84
2018-03-02T07:26:52.785Z,1004.79
2018-03-02T07:27:52.758Z,1004.81
2018-03-02T07:28:52.733Z,1004.80
2018-03-02T07:29:52.704Z,1004.76
2018-03-02T07:30:52.682Z,1004.75
2018-03-02T07:31:52.654Z,1004.73
2018-03-02T07:32:52.635Z,1004.77
2018-03-02T07:33:52.603Z,1004.79
2018-03-02T07:34:52.578Z,1004.79
2018-03-02T07:35:52.559Z,1004.77
2018-03-02T07:36:52.524Z,1004.75
2018-03-02T07:37:52.509Z,1004.76
2018-03-02T07:38:52.475Z,1004.74
2018-03-02T07:39:52.453Z,1004.74
2018-03-02T07:40:52.424Z,1004.67
2018-03-02T07:41:52.398Z,1004.69
2018-03-02T07:42:52.373Z,1004.64
2018-03-02T07:43:52.349Z,1004.64
2018-03-02T07:44:52.321Z,1004.63
2018-03-02T07:45:52.303Z,1004.64
2018-03-02T07:46:52.271Z,1004.65
2018-03-02T07:47:52.246Z,1004.70
2018-03-02T07:48:52.223Z,1004.70
2018-03-02T07:49:52.199Z,1004.63
2018-03-02T07:50:52.166Z,1004.62
2018-03-02T07:51:52.145Z,1004.60
2018-03-02T07:52:52.119Z,1004.60
2018-03-02T07:53:52.094Z,1004.56
2018-03-02T07:54:52.073Z,1004.59
2018-03-02T07:55:52.042Z,1004.56
2018-03-02T07:56:52.017Z,1004.51
2018-03-02T07:57:51.997Z,1004.51
2018-03-02T07:58:51.970Z,1004.53
2018-03-02T07:59:51.941Z,1004.50
2018-03-02T08:00:51.913Z,1004.50
2018-03-02T08:01:51.892Z,1004.50
2018-03-02T08:02:51.868Z,1004.48
2018-03-02T08:03:51.840Z,1004.52
2018-03-02T08:04:51.819Z,1004.50
2018-03-02T08:05:51.794Z,1004.51
2018-03-02T08:06:51.769Z,1004.49
2018-03-02T08:07:51.743Z,1004.51
2018-03-02T08:08:51.717Z,1004.52
2018-03-02T08:09:51.691Z,1004.50
2018-03-02T08:10:51.668Z,1004.53
2018-03-02T08:11:51.649Z,1004.49
2018-03-02T08:12:51.623Z,1004.46
2018-03-02T08:13:51.595Z,1004.48
2018-03-02T08:14:51.570Z,1004.46
2018-03-02T08:15:51.544Z,1004.49
2018-03-02T08:16:51.523Z,1004.44
2018-03-02T08:17:51.498Z,1004.47
2018-03-02T08:18:51.470Z,1004.41
2018-03-02T08:19:51.452Z,1004.47
2018-03-02T08:20:51.425Z,1004.44
2018-03-02T08:21:51.400Z,1004.44
2018-03-02T08:22:51.380Z,1004.41
2018-03-02T08:23:51.359Z,1004.45
2018-03-02T08:24:51.330Z,1004.41
2018-03-02T08:25:51.308Z,1004.37
2018-03-02T08:26:51.276Z,1004.34
2018-03-02T08:27:51.269Z,1004.33
2018-03-02T08:28:51.230Z,1004.40
2018-03-02T08:29:51.211Z,1004.41
2018-03-02T08:30:51.182Z,1004.42
2018-03-02T08:31:51.160Z,1004.40
2018-03-02T08:32:51.139Z,1004.40
2018-03-02T08:33:51.122Z,1004.63
2018-03-02T08:34:51.095Z,1004.84
2018-03-02T08:35:51.064Z,1005.05
2018-03-02T08:36:51.041Z,1004.94
2018-03-02T08:37:51.021Z,1004.73
2018-03-02T08:38:50.990Z,1004.82
2018-03-02T08:39:50.972Z,1005.01
2018-03-02T08:40:50.951Z,1005.00
2018-03-02T08:41:50.926Z,1004.80
2018-03-02T08:42:50.902Z,1004.97
2018-03-02T08:43:50.878Z,1005.03
2018-03-02T08:44:50.862Z,1005.14
2018-03-02T08:45:50.832Z,1005.20
2018-03-02T08:46:50.810Z,1005.17
2018-03-02T08:47:50.790Z,1005.15
2018-03-02T08:48:50.767Z,1005.20
2018-03-02T08:49:50.744Z,1005.11
2018-03-02T08:50:50.728Z,1004.94
2018-03-02T08:51:50.701Z,1004.97
2018-03-02T08:52:50.681Z,1005.04
2018-03-02T08:53:50.661Z,1005.02
2018-03-02T08:54:50.641Z,1004.96
2018-03-02T08:55:50.618Z,1004.90
2018-03-02T08:56:50.602Z,1004.93
2018-03-02T08:57:50.582Z,1005.05
2018-03-02T08:58:50.560Z,1004.73
2018-03-02T08:59:50.539Z,1004.49
2018-03-02T09:00:50.521Z,1004.53
2018-03-02T09:01:50.499Z,1004.80
2018-03-02T09:02:50.489Z,1005.03
2018-03-02T09:03:50.477Z,1005.08
2018-03-02T09:04:50.437Z,1005.00
2018-03-02T09:05:50.419Z,1005.01
2018-03-02T09:06:50.402Z,1004.75
2018-03-02T09:07:50.383Z,1004.73
2018-03-02T09:08:50.362Z,1004.86
2018-03-02T09:09:50.344Z,1004.83
2018-03-02T09:10:50.324Z,1004.98
2018-03-02T09:11:50.394Z,1004.98
2018-03-02T09:12:50.289Z,1004.95
2018-03-02T09:13:50.273Z,1004.91
2018-03-02T09:14:50.254Z,1004.68
2018-03-02T09:15:50.242Z,1004.53
2018-03-02T09:16:50.266Z,1004.47
2018-03-02T09:17:50.198Z,1004.50
2018-03-02T09:18:50.183Z,1004.49
2018-03-02T09:19:50.165Z,1004.43
2018-03-02T09:20:50.150Z,1004.38
2018-03-02T09:21:50.131Z,1004.29
2018-03-02T09:22:50.184Z,1004.31
2018-03-02T09:23:50.107Z,1004.27
2018-03-02T09:24:50.140Z,1004.33
2018-03-02T09:25:50.064Z,1004.40
2018-03-02T09:26:50.048Z,1004.37
2018-03-02T09:27:50.030Z,1004.66
2018-03-02T09:28:50.014Z,1004.59
2018-03-02T09:29:50.006Z,1004.51
2018-03-02T09:30:49.985Z,1004.56
2018-03-02T09:31:49.963Z,1004.66
2018-03-02T09:32:50.055Z,1004.66
2018-03-02T09:33:49.930Z,1004.75
2018-03-02T09:34:50.002Z,1004.53
2018-03-02T09:35:49.898Z,1004.63
2018-03-02T09:36:49.889Z,1004.68
2018-03-02T09:37:49.867Z,1004.68
2018-03-02T09:38:49.860Z,1004.62
2018-03-02T09:39:49.847Z,1004.57
2018-03-02T09:40:49.840Z,1004.71
2018-03-02T09:41:49.810Z,1004.76
2018-03-02T09:42:49.916Z,1004.81
2018-03-02T09:43:49.779Z,1004.80
2018-03-02T09:44:49.764Z,1004.73
2018-03-02T09:45:49.754Z,1004.73
2018-03-02T09:46:49.742Z,1004.75
2018-03-02T09:47:49.739Z,1004.47
2018-03-02T09:48:49.716Z,1004.52
2018-03-02T09:49:49.699Z,1004.54
2018-03-02T09:50:49.691Z,1004.43
2018-03-02T09:51:49.677Z,1004.46
2018-03-02T09:52:49.669Z,1004.49
2018-03-02T09:53:49.653Z,1004.60
2018-03-02T09:54:49.666Z,1004.61
2018-03-02T09:55:49.633Z,1004.61
2018-03-02T09:56:49.622Z,1004.59
2018-03-02T09:57:49.614Z,1004.64
2018-03-02T09:58:49.606Z,1004.58
2018-03-02T09:59:49.589Z,1004.58
2018-03-02T10:00:49.583Z,1004.46
2018-03-02T10:01:49.569Z,1004.53
2018-03-02T10:02:49.559Z,1004.58
2018-03-02T10:03:49.553Z,1004.50
2018-03-02T10:04:49.540Z,1004.53
2018-03-02T10:05:49.533Z,1004.51
2018-03-02T10:06:49.525Z,1004.48
2018-03-02T10:07:49.515Z,1004.47
2018-03-02T10:08:49.513Z,1004.48
2018-03-02T10:09:49.498Z,1004.43
2018-03-02T10:10:49.494Z,1004.48
2018-03-02T10:11:49.486Z,1004.35
2018-03-02T10:12:49.480Z,1004.38
2018-03-02T10:13:49.470Z,1004.31
2018-03-02T10:14:49.462Z,1004.37
2018-03-02T10:15:49.456Z,1004.42
2018-03-02T10:16:49.450Z,1004.37
2018-03-02T10:17:49.444Z,1004.32
2018-03-02T10:18:49.438Z,1004.30
2018-03-02T10:19:49.425Z,1004.20
2018-03-02T10:20:49.421Z,1004.25
2018-03-02T10:21:49.417Z,1004.17
2018-03-02T10:22:49.416Z,1004.30
2018-03-02T10:23:49.408Z,1004.21
2018-03-02T10:24:49.397Z,1004.20
2018-03-02T10:25:49.399Z,1004.19
2018-03-02T10:26:49.384Z,1004.13
2018-03-02T10:27:49.506Z,1004.15
2018-03-02T10:28:49.378Z,1004.17
2018-03-02T10:29:49.372Z,1004.07
2018-03-02T10:30:49.365Z,1004.07
2018-03-02T10:31:49.417Z,1004.06
2018-03-02T10:32:49.360Z,1004.11
2018-03-02T10:33:49.352Z,1004.09
2018-03-02T10:34:49.347Z,1004.04
2018-03-02T10:35:49.343Z,1003.95
2018-03-02T10:36:49.337Z,1003.96
2018-03-02T10:37:49.338Z,1003.95
2018-03-02T10:38:49.331Z,1003.98
2018-03-02T10:39:49.325Z,1003.97
2018-03-02T10:40:49.323Z,1003.88
2018-03-02T10:41:49.326Z,1003.87
2018-03-02T10:42:49.311Z,1003.86
2018-03-02T10:43:49.305Z,1003.95
2018-03-02T10:44:49.315Z,1003.93
2018-03-02T10:45:49.306Z,1003.90
2018-03-02T10:46:49.297Z,1003.91
2018-03-02T10:47:49.292Z,1003.85
2018-03-02T10:48:49.287Z,1003.90
2018-03-02T10:49:49.282Z,1003.83
2018-03-02T10:50:49.281Z,1003.76
2018-03-02T10:51:49.276Z,1003.75
2018-03-02T10:52:49.279Z,1003.80
2018-03-02T10:53:49.272Z,1003.78
2018-03-02T10:54:49.266Z,1003.74
2018-03-02T10:55:49.265Z,1003.73
2018-03-02T10:56:49.257Z,1003.70
2018-03-02T10:57:49.256Z,1003.75
2018-03-02T10:58:49.258Z,1003.76
2018-03-02T10:59:49.250Z,1003.70
2018-03-02T11:00:49.248Z,1003.71
2018-03-02T11:01:49.286Z,1003.71
2018-03-02T11:02:49.266Z,1003.64
2018-03-02T11:03:49.246Z,1003.61
2018-03-02T11:04:49.235Z,1003.63
2018-03-02T11:05:49.235Z,1003.58
2018-03-02T11:06:49.232Z,1003.62
2018-03-02T11:07:49.230Z,1003.59
2018-03-02T11:08:49.225Z,1003.58
2018-03-02T11:09:49.224Z,1003.59
2018-03-02T11:10:49.220Z,1003.59
2018-03-02T11:11:49.224Z,1003.59
2018-03-02T11:12:49.217Z,1003.56
2018-03-02T11:13:49.216Z,1003.53
2018-03-02T11:14:49.209Z,1003.46
2018-03-02T11:15:49.208Z,1003.40
2018-03-02T11:16:49.207Z,1003.45
2018-03-02T11:17:49.208Z,1003.42
2018-03-02T11:18:49.204Z,1003.37
2018-03-02T11:19:49.208Z,1003.42
2018-03-02T11:20:49.196Z,1003.33
2018-03-02T11:21:49.196Z,1003.35
2018-03-02T11:22:49.191Z,1003.32
2018-03-02T11:23:49.192Z,1003.32
2018-03-02T11:24:49.192Z,1003.39
2018-03-02T11:25:49.190Z,1003.30
2018-03-02T11:26:49.189Z,1003.36
2018-03-02T11:27:49.186Z,1003.38
2018-03-02T11:28:49.186Z,1003.33
2018-03-02T11:29:49.186Z,1003.30
2018-03-02T11:30:49.178Z,1003.26
2018-03-02T11:31:49.173Z,1003.25
2018-03-02T11:32:49.176Z,1003.26
2018-03-02T11:33:49.176Z,1003.27
2018-03-02T11:34:49.173Z,1003.18
2018-03-02T11:35:49.169Z,1003.20
2018-03-02T11:36:49.169Z,1003.22
2018-03-02T11:37:49.174Z,1003.19
2018-03-02T11:38:49.164Z,1003.14
2018-03-02T11:39:49.162Z,1003.06
2018-03-02T11:40:49.171Z,1003.01
2018-03-02T11:41:49.169Z,1003.01
2018-03-02T11:42:49.161Z,1003.01
2018-03-02T11:43:49.164Z,1002.98
2018-03-02T11:44:49.163Z,1002.97
2018-03-02T11:45:49.163Z,1002.99
2018-03-02T11:46:49.156Z,1003.06
2018-03-02T11:47:49.156Z,1002.99
2018-03-02T11:48:49.159Z,1002.98
2018-03-02T11:49:49.156Z,1002.90
2018-03-02T11:50:49.154Z,1002.88
2018-03-02T11:51:49.155Z,1002.88
2018-03-02T11:52:49.161Z,1002.84
2018-03-02T11:53:49.153Z,1002.80
2018-03-02T11:54:49.161Z,1002.81
2018-03-02T11:55:49.151Z,1002.79
2018-03-02T11:56:49.149Z,1002.80
2018-03-02T11:57:49.150Z,1002.76
2018-03-02T11:58:49.152Z,1002.77
2018-03-02T11:59:49.152Z,1002.69
2018-03-02T12:00:49.143Z,1002.68
2018-03-02T12:01:49.144Z,1002.62
2018-03-02T12:02:49.153Z,1002.60
2018-03-02T12:03:49.143Z,1002.58
2018-03-02T12:04:49.143Z,1002.50